sensor_id;sensor_type;location;lat;lon;timestamp;temperature;humidity
65058;HTU21D;51644;51.068;5.860;2023-07-20T00:00:11;20.19;67.91
65058;HTU21D;51644;51.068;5.860;2023-07-20T00:01:12;20.18;68.07
65058;HTU21D;51644;51.068;5.860;2023-07-20T00:02:10;20.20;68.08
65058;HTU21D;51644;51.068;5.860;2023-07-20T00:03:14;20.24;68.03
65058;HTU21D;51644;51.068;5.860;2023-07-20T00:04:15;20.22;68.13
65058;HTU21D;51644;51.068;5.860;2023-07-20T00:05:13;20.26;68.06
65058;HTU21D;51644;51.068;5.860;2023-07-20T00:06:12;20.27;68.07
65058;HTU21D;51644;51.068;5.860;2023-07-20T00:07:10;20.27;68.13
65058;HTU21D;51644;51.068;5.860;2023-07-20T00:08:09;20.30;68.04
65058;HTU21D;51644;51.068;5.860;2023-07-20T00:09:08;20.31;68.06
65058;HTU21D;51644;51.068;5.860;2023-07-20T00:10:07;20.33;67.97
65058;HTU21D;51644;51.068;5.860;2023-07-20T00:11:11;20.29;68.14
65058;HTU21D;51644;51.068;5.860;2023-07-20T00:12:11;20.29;68.08
65058;HTU21D;51644;51.068;5.860;2023-07-20T00:13:11;20.28;68.20
65058;HTU21D;51644;51.068;5.860;2023-07-20T00:14:10;20.24;68.33
65058;HTU21D;51644;51.068;5.860;2023-07-20T00:15:09;20.21;68.39
65058;HTU21D;51644;51.068;5.860;2023-07-20T00:16:07;20.19;68.54
65058;HTU21D;51644;51.068;5.860;2023-07-20T00:17:06;20.12;68.78
65058;HTU21D;51644;51.068;5.860;2023-07-20T00:18:05;20.07;68.85
65058;HTU21D;51644;51.068;5.860;2023-07-20T00:19:03;19.95;69.19
65058;HTU21D;51644;51.068;5.860;2023-07-20T00:20:03;19.94;69.26
65058;HTU21D;51644;51.068;5.860;2023-07-20T00:21:03;19.86;69.61
65058;HTU21D;51644;51.068;5.860;2023-07-20T00:22:02;19.82;69.73
65058;HTU21D;51644;51.068;5.860;2023-07-20T00:23:03;19.76;69.90
65058;HTU21D;51644;51.068;5.860;2023-07-20T00:24:01;19.66;70.25
65058;HTU21D;51644;51.068;5.860;2023-07-20T00:25:00;19.58;70.48
65058;HTU21D;51644;51.068;5.860;2023-07-20T00:25:58;19.54;70.73
65058;HTU21D;51644;51.068;5.860;2023-07-20T00:26:57;19.48;70.81
65058;HTU21D;51644;51.068;5.860;2023-07-20T00:27:56;19.43;71.13
65058;HTU21D;51644;51.068;5.860;2023-07-20T00:28:54;19.39;71.19
65058;HTU21D;51644;51.068;5.860;2023-07-20T00:29:53;19.36;71.29
65058;HTU21D;51644;51.068;5.860;2023-07-20T00:30:55;19.37;71.47
65058;HTU21D;51644;51.068;5.860;2023-07-20T00:31:54;19.32;71.74
65058;HTU21D;51644;51.068;5.860;2023-07-20T00:32:52;19.33;71.70
65058;HTU21D;51644;51.068;5.860;2023-07-20T00:33:51;19.26;72.01
65058;HTU21D;51644;51.068;5.860;2023-07-20T00:34:49;19.27;71.90
65058;HTU21D;51644;51.068;5.860;2023-07-20T00:35:48;19.27;71.99
65058;HTU21D;51644;51.068;5.860;2023-07-20T00:36:48;19.22;72.34
65058;HTU21D;51644;51.068;5.860;2023-07-20T00:37:47;19.17;72.54
65058;HTU21D;51644;51.068;5.860;2023-07-20T00:38:46;19.12;72.45
65058;HTU21D;51644;51.068;5.860;2023-07-20T00:39:44;19.12;72.47
65058;HTU21D;51644;51.068;5.860;2023-07-20T00:40:43;19.09;72.64
65058;HTU21D;51644;51.068;5.860;2023-07-20T00:41:43;19.06;72.74
65058;HTU21D;51644;51.068;5.860;2023-07-20T00:42:41;19.05;72.78
65058;HTU21D;51644;51.068;5.860;2023-07-20T00:43:40;18.97;73.48
65058;HTU21D;51644;51.068;5.860;2023-07-20T00:44:38;18.96;73.09
65058;HTU21D;51644;51.068;5.860;2023-07-20T00:45:38;18.93;73.16
65058;HTU21D;51644;51.068;5.860;2023-07-20T00:46:37;18.91;73.28
65058;HTU21D;51644;51.068;5.860;2023-07-20T00:47:36;18.88;73.46
65058;HTU21D;51644;51.068;5.860;2023-07-20T00:48:35;18.89;73.46
65058;HTU21D;51644;51.068;5.860;2023-07-20T00:49:35;18.84;73.61
65058;HTU21D;51644;51.068;5.860;2023-07-20T00:50:34;18.85;73.70
65058;HTU21D;51644;51.068;5.860;2023-07-20T00:51:34;18.81;73.95
65058;HTU21D;51644;51.068;5.860;2023-07-20T00:52:35;18.81;73.88
65058;HTU21D;51644;51.068;5.860;2023-07-20T00:53:38;18.79;73.97
65058;HTU21D;51644;51.068;5.860;2023-07-20T00:54:37;18.74;74.44
65058;HTU21D;51644;51.068;5.860;2023-07-20T00:55:37;18.77;74.15
65058;HTU21D;51644;51.068;5.860;2023-07-20T00:56:36;18.76;74.38
65058;HTU21D;51644;51.068;5.860;2023-07-20T00:57:35;18.71;74.43
65058;HTU21D;51644;51.068;5.860;2023-07-20T00:58:34;18.72;74.44
65058;HTU21D;51644;51.068;5.860;2023-07-20T00:59:34;18.69;74.65
65058;HTU21D;51644;51.068;5.860;2023-07-20T01:00:34;18.69;74.74
65058;HTU21D;51644;51.068;5.860;2023-07-20T01:01:33;18.67;74.79
65058;HTU21D;51644;51.068;5.860;2023-07-20T01:02:32;18.64;74.98
65058;HTU21D;51644;51.068;5.860;2023-07-20T01:03:30;18.65;74.99
65058;HTU21D;51644;51.068;5.860;2023-07-20T01:04:29;18.62;75.18
65058;HTU21D;51644;51.068;5.860;2023-07-20T01:06:11;18.62;75.42
65058;HTU21D;51644;51.068;5.860;2023-07-20T01:07:16;18.56;76.34
65058;HTU21D;51644;51.068;5.860;2023-07-20T01:09:51;18.57;75.38
65058;HTU21D;51644;51.068;5.860;2023-07-20T01:11:01;18.64;75.34
65058;HTU21D;51644;51.068;5.860;2023-07-20T01:12:11;18.66;75.43
65058;HTU21D;51644;51.068;5.860;2023-07-20T01:13:14;18.70;75.35
65058;HTU21D;51644;51.068;5.860;2023-07-20T01:14:14;18.72;75.28
65058;HTU21D;51644;51.068;5.860;2023-07-20T01:15:12;18.77;75.21
65058;HTU21D;51644;51.068;5.860;2023-07-20T01:16:11;18.80;75.10
65058;HTU21D;51644;51.068;5.860;2023-07-20T01:17:10;18.82;75.02
65058;HTU21D;51644;51.068;5.860;2023-07-20T01:18:09;18.82;75.08
65058;HTU21D;51644;51.068;5.860;2023-07-20T01:19:07;18.84;74.97
65058;HTU21D;51644;51.068;5.860;2023-07-20T01:20:09;18.80;75.16
65058;HTU21D;51644;51.068;5.860;2023-07-20T01:21:21;18.83;74.94
65058;HTU21D;51644;51.068;5.860;2023-07-20T01:22:57;18.84;74.94
65058;HTU21D;51644;51.068;5.860;2023-07-20T01:24:45;18.81;75.09
65058;HTU21D;51644;51.068;5.860;2023-07-20T01:27:33;18.88;75.05
65058;HTU21D;51644;51.068;5.860;2023-07-20T01:29:04;18.97;74.97
65058;HTU21D;51644;51.068;5.860;2023-07-20T01:30:30;19.03;74.89
65058;HTU21D;51644;51.068;5.860;2023-07-20T01:31:34;19.13;74.64
65058;HTU21D;51644;51.068;5.860;2023-07-20T01:32:37;19.21;74.51
65058;HTU21D;51644;51.068;5.860;2023-07-20T01:33:40;19.27;74.40
65058;HTU21D;51644;51.068;5.860;2023-07-20T01:34:41;19.32;74.11
65058;HTU21D;51644;51.068;5.860;2023-07-20T01:35:41;19.38;73.80
65058;HTU21D;51644;51.068;5.860;2023-07-20T01:36:43;19.40;73.61
65058;HTU21D;51644;51.068;5.860;2023-07-20T01:37:46;19.39;73.54
65058;HTU21D;51644;51.068;5.860;2023-07-20T01:38:46;19.36;73.54
65058;HTU21D;51644;51.068;5.860;2023-07-20T01:39:45;19.31;73.64
65058;HTU21D;51644;51.068;5.860;2023-07-20T01:40:44;19.30;73.60
65058;HTU21D;51644;51.068;5.860;2023-07-20T01:41:45;19.25;73.86
65058;HTU21D;51644;51.068;5.860;2023-07-20T01:42:46;19.27;73.74
65058;HTU21D;51644;51.068;5.860;2023-07-20T01:43:46;19.24;73.88
65058;HTU21D;51644;51.068;5.860;2023-07-20T01:44:44;19.20;73.95
65058;HTU21D;51644;51.068;5.860;2023-07-20T01:45:43;19.21;73.93
65058;HTU21D;51644;51.068;5.860;2023-07-20T01:46:42;19.15;74.19
65058;HTU21D;51644;51.068;5.860;2023-07-20T01:47:41;19.15;74.13
65058;HTU21D;51644;51.068;5.860;2023-07-20T01:48:39;19.16;74.15
65058;HTU21D;51644;51.068;5.860;2023-07-20T01:49:41;19.15;74.23
65058;HTU21D;51644;51.068;5.860;2023-07-20T01:50:39;19.15;74.18
65058;HTU21D;51644;51.068;5.860;2023-07-20T01:51:38;19.17;74.10
65058;HTU21D;51644;51.068;5.860;2023-07-20T01:52:37;19.16;74.08
65058;HTU21D;51644;51.068;5.860;2023-07-20T01:53:35;19.15;74.20
65058;HTU21D;51644;51.068;5.860;2023-07-20T01:54:34;19.13;74.07
65058;HTU21D;51644;51.068;5.860;2023-07-20T01:55:33;19.13;74.12
65058;HTU21D;51644;51.068;5.860;2023-07-20T01:56:31;19.11;74.09
65058;HTU21D;51644;51.068;5.860;2023-07-20T01:57:30;19.10;74.22
65058;HTU21D;51644;51.068;5.860;2023-07-20T01:58:28;19.10;74.21
65058;HTU21D;51644;51.068;5.860;2023-07-20T01:59:27;19.07;74.27
65058;HTU21D;51644;51.068;5.860;2023-07-20T02:00:26;19.07;74.26
65058;HTU21D;51644;51.068;5.860;2023-07-20T02:01:25;19.01;74.56
65058;HTU21D;51644;51.068;5.860;2023-07-20T02:02:27;19.00;74.44
65058;HTU21D;51644;51.068;5.860;2023-07-20T02:03:26;19.00;74.49
65058;HTU21D;51644;51.068;5.860;2023-07-20T02:04:25;18.95;74.60
65058;HTU21D;51644;51.068;5.860;2023-07-20T02:05:23;18.95;74.59
65058;HTU21D;51644;51.068;5.860;2023-07-20T02:06:23;18.91;74.73
65058;HTU21D;51644;51.068;5.860;2023-07-20T02:07:21;18.91;74.56
65058;HTU21D;51644;51.068;5.860;2023-07-20T02:08:20;18.88;74.60
65058;HTU21D;51644;51.068;5.860;2023-07-20T02:09:19;18.89;74.60
65058;HTU21D;51644;51.068;5.860;2023-07-20T02:10:18;18.88;74.68
65058;HTU21D;51644;51.068;5.860;2023-07-20T02:11:17;18.85;74.72
65058;HTU21D;51644;51.068;5.860;2023-07-20T02:12:15;18.79;75.05
65058;HTU21D;51644;51.068;5.860;2023-07-20T02:13:14;18.80;74.86
65058;HTU21D;51644;51.068;5.860;2023-07-20T02:14:13;18.76;75.02
65058;HTU21D;51644;51.068;5.860;2023-07-20T02:15:11;18.69;75.12
65058;HTU21D;51644;51.068;5.860;2023-07-20T02:16:11;18.70;75.05
65058;HTU21D;51644;51.068;5.860;2023-07-20T02:17:12;18.64;75.31
65058;HTU21D;51644;51.068;5.860;2023-07-20T02:18:12;18.59;75.25
65058;HTU21D;51644;51.068;5.860;2023-07-20T02:19:14;18.55;75.46
65058;HTU21D;51644;51.068;5.860;2023-07-20T02:20:12;18.52;75.47
65058;HTU21D;51644;51.068;5.860;2023-07-20T02:21:11;18.50;75.53
65058;HTU21D;51644;51.068;5.860;2023-07-20T02:22:10;18.49;75.54
65058;HTU21D;51644;51.068;5.860;2023-07-20T02:23:09;18.48;75.66
65058;HTU21D;51644;51.068;5.860;2023-07-20T02:24:08;18.48;75.64
65058;HTU21D;51644;51.068;5.860;2023-07-20T02:25:07;18.43;75.86
65058;HTU21D;51644;51.068;5.860;2023-07-20T02:26:06;18.41;75.86
65058;HTU21D;51644;51.068;5.860;2023-07-20T02:27:05;18.38;75.91
65058;HTU21D;51644;51.068;5.860;2023-07-20T02:28:07;18.37;75.88
65058;HTU21D;51644;51.068;5.860;2023-07-20T02:29:07;18.33;76.02
65058;HTU21D;51644;51.068;5.860;2023-07-20T02:30:07;18.32;76.06
65058;HTU21D;51644;51.068;5.860;2023-07-20T02:31:07;18.28;76.20
65058;HTU21D;51644;51.068;5.860;2023-07-20T02:32:06;18.28;76.24
65058;HTU21D;51644;51.068;5.860;2023-07-20T02:33:05;18.27;76.27
65058;HTU21D;51644;51.068;5.860;2023-07-20T02:34:05;18.25;76.31
65058;HTU21D;51644;51.068;5.860;2023-07-20T02:35:05;18.25;76.37
65058;HTU21D;51644;51.068;5.860;2023-07-20T02:36:03;18.23;76.47
65058;HTU21D;51644;51.068;5.860;2023-07-20T02:37:02;18.23;76.54
65058;HTU21D;51644;51.068;5.860;2023-07-20T02:38:01;18.21;76.60
65058;HTU21D;51644;51.068;5.860;2023-07-20T02:39:00;18.19;76.64
65058;HTU21D;51644;51.068;5.860;2023-07-20T02:40:00;18.19;76.64
65058;HTU21D;51644;51.068;5.860;2023-07-20T02:40:59;18.19;76.70
65058;HTU21D;51644;51.068;5.860;2023-07-20T02:41:58;18.17;76.74
65058;HTU21D;51644;51.068;5.860;2023-07-20T02:42:57;18.18;76.79
65058;HTU21D;51644;51.068;5.860;2023-07-20T02:43:55;18.19;76.80
65058;HTU21D;51644;51.068;5.860;2023-07-20T02:44:55;18.21;76.79
65058;HTU21D;51644;51.068;5.860;2023-07-20T02:45:53;18.19;76.97
65058;HTU21D;51644;51.068;5.860;2023-07-20T02:46:52;18.19;76.79
65058;HTU21D;51644;51.068;5.860;2023-07-20T02:47:51;18.18;76.85
65058;HTU21D;51644;51.068;5.860;2023-07-20T02:48:50;18.15;76.89
65058;HTU21D;51644;51.068;5.860;2023-07-20T02:49:49;18.18;76.89
65058;HTU21D;51644;51.068;5.860;2023-07-20T02:50:47;18.20;76.89
65058;HTU21D;51644;51.068;5.860;2023-07-20T02:51:46;18.22;76.96
65058;HTU21D;51644;51.068;5.860;2023-07-20T02:52:44;18.24;76.82
65058;HTU21D;51644;51.068;5.860;2023-07-20T02:53:43;18.28;76.72
65058;HTU21D;51644;51.068;5.860;2023-07-20T02:54:42;18.30;76.68
65058;HTU21D;51644;51.068;5.860;2023-07-20T02:55:41;18.34;76.52
65058;HTU21D;51644;51.068;5.860;2023-07-20T02:56:39;18.37;76.40
65058;HTU21D;51644;51.068;5.860;2023-07-20T02:57:41;18.40;76.38
65058;HTU21D;51644;51.068;5.860;2023-07-20T02:58:42;18.44;76.18
65058;HTU21D;51644;51.068;5.860;2023-07-20T02:59:47;18.48;76.16
65058;HTU21D;51644;51.068;5.860;2023-07-20T03:00:45;18.52;75.93
65058;HTU21D;51644;51.068;5.860;2023-07-20T03:01:44;18.54;75.92
65058;HTU21D;51644;51.068;5.860;2023-07-20T03:02:43;18.56;75.97
65058;HTU21D;51644;51.068;5.860;2023-07-20T03:03:42;18.61;75.68
65058;HTU21D;51644;51.068;5.860;2023-07-20T03:04:45;18.61;75.63
65058;HTU21D;51644;51.068;5.860;2023-07-20T03:05:43;18.59;75.63
65058;HTU21D;51644;51.068;5.860;2023-07-20T03:06:45;18.63;75.44
65058;HTU21D;51644;51.068;5.860;2023-07-20T03:07:43;18.64;75.43
65058;HTU21D;51644;51.068;5.860;2023-07-20T03:08:43;18.64;75.38
65058;HTU21D;51644;51.068;5.860;2023-07-20T03:09:43;18.68;75.26
65058;HTU21D;51644;51.068;5.860;2023-07-20T03:10:42;18.67;75.28
65058;HTU21D;51644;51.068;5.860;2023-07-20T03:11:41;18.71;75.14
65058;HTU21D;51644;51.068;5.860;2023-07-20T03:12:39;18.70;75.19
65058;HTU21D;51644;51.068;5.860;2023-07-20T03:13:39;18.68;75.29
65058;HTU21D;51644;51.068;5.860;2023-07-20T03:14:40;18.70;75.11
65058;HTU21D;51644;51.068;5.860;2023-07-20T03:15:39;18.72;75.08
65058;HTU21D;51644;51.068;5.860;2023-07-20T03:16:37;18.76;75.10
65058;HTU21D;51644;51.068;5.860;2023-07-20T03:17:36;18.78;75.10
65058;HTU21D;51644;51.068;5.860;2023-07-20T03:18:39;18.81;74.90
65058;HTU21D;51644;51.068;5.860;2023-07-20T03:19:39;18.83;74.80
65058;HTU21D;51644;51.068;5.860;2023-07-20T03:20:38;18.86;74.69
65058;HTU21D;51644;51.068;5.860;2023-07-20T03:21:37;18.85;74.60
65058;HTU21D;51644;51.068;5.860;2023-07-20T03:22:39;18.86;74.52
65058;HTU21D;51644;51.068;5.860;2023-07-20T03:23:40;18.85;74.51
65058;HTU21D;51644;51.068;5.860;2023-07-20T03:24:38;18.85;74.58
65058;HTU21D;51644;51.068;5.860;2023-07-20T03:25:37;18.86;74.53
65058;HTU21D;51644;51.068;5.860;2023-07-20T03:26:37;18.87;74.52
65058;HTU21D;51644;51.068;5.860;2023-07-20T03:27:35;18.85;74.60
65058;HTU21D;51644;51.068;5.860;2023-07-20T03:28:36;18.88;74.51
65058;HTU21D;51644;51.068;5.860;2023-07-20T03:29:34;18.89;74.48
65058;HTU21D;51644;51.068;5.860;2023-07-20T03:30:34;18.92;74.51
65058;HTU21D;51644;51.068;5.860;2023-07-20T03:31:34;18.94;74.46
65058;HTU21D;51644;51.068;5.860;2023-07-20T03:32:32;18.96;74.40
65058;HTU21D;51644;51.068;5.860;2023-07-20T03:33:32;18.98;74.32
65058;HTU21D;51644;51.068;5.860;2023-07-20T03:34:31;19.02;74.22
65058;HTU21D;51644;51.068;5.860;2023-07-20T03:35:30;19.05;74.14
65058;HTU21D;51644;51.068;5.860;2023-07-20T03:36:30;19.08;74.09
65058;HTU21D;51644;51.068;5.860;2023-07-20T03:37:29;19.09;74.10
65058;HTU21D;51644;51.068;5.860;2023-07-20T03:38:28;19.09;74.09
65058;HTU21D;51644;51.068;5.860;2023-07-20T03:39:27;19.07;74.07
65058;HTU21D;51644;51.068;5.860;2023-07-20T03:40:29;19.09;74.03
65058;HTU21D;51644;51.068;5.860;2023-07-20T03:41:27;19.11;74.18
65058;HTU21D;51644;51.068;5.860;2023-07-20T03:42:26;19.12;74.08
65058;HTU21D;51644;51.068;5.860;2023-07-20T03:43:27;19.11;73.92
65058;HTU21D;51644;51.068;5.860;2023-07-20T03:44:32;19.11;73.87
65058;HTU21D;51644;51.068;5.860;2023-07-20T03:45:30;19.10;73.83
65058;HTU21D;51644;51.068;5.860;2023-07-20T03:46:29;19.11;73.77
65058;HTU21D;51644;51.068;5.860;2023-07-20T03:47:28;19.12;73.76
65058;HTU21D;51644;51.068;5.860;2023-07-20T03:48:27;19.11;73.80
65058;HTU21D;51644;51.068;5.860;2023-07-20T03:49:25;19.14;73.81
65058;HTU21D;51644;51.068;5.860;2023-07-20T03:50:24;19.14;73.83
65058;HTU21D;51644;51.068;5.860;2023-07-20T03:51:23;19.17;73.84
65058;HTU21D;51644;51.068;5.860;2023-07-20T03:52:21;19.18;73.73
65058;HTU21D;51644;51.068;5.860;2023-07-20T03:53:20;19.17;73.71
65058;HTU21D;51644;51.068;5.860;2023-07-20T03:54:19;19.21;73.65
65058;HTU21D;51644;51.068;5.860;2023-07-20T03:55:18;19.20;73.63
65058;HTU21D;51644;51.068;5.860;2023-07-20T03:56:16;19.18;73.64
65058;HTU21D;51644;51.068;5.860;2023-07-20T03:57:15;19.21;73.63
65058;HTU21D;51644;51.068;5.860;2023-07-20T03:58:14;19.22;73.64
65058;HTU21D;51644;51.068;5.860;2023-07-20T03:59:13;19.25;73.70
65058;HTU21D;51644;51.068;5.860;2023-07-20T04:00:12;19.26;73.63
65058;HTU21D;51644;51.068;5.860;2023-07-20T04:01:12;19.28;73.56
65058;HTU21D;51644;51.068;5.860;2023-07-20T04:02:11;19.29;73.54
65058;HTU21D;51644;51.068;5.860;2023-07-20T04:03:10;19.29;73.43
65058;HTU21D;51644;51.068;5.860;2023-07-20T04:04:09;19.28;73.42
65058;HTU21D;51644;51.068;5.860;2023-07-20T04:05:08;19.27;73.48
65058;HTU21D;51644;51.068;5.860;2023-07-20T04:06:06;19.27;73.53
65058;HTU21D;51644;51.068;5.860;2023-07-20T04:07:06;19.27;73.56
65058;HTU21D;51644;51.068;5.860;2023-07-20T04:08:06;19.28;73.57
65058;HTU21D;51644;51.068;5.860;2023-07-20T04:09:04;19.29;73.63
65058;HTU21D;51644;51.068;5.860;2023-07-20T04:10:04;19.27;73.62
65058;HTU21D;51644;51.068;5.860;2023-07-20T04:11:02;19.24;73.64
65058;HTU21D;51644;51.068;5.860;2023-07-20T04:12:01;19.23;73.65
65058;HTU21D;51644;51.068;5.860;2023-07-20T04:13:01;19.23;73.72
65058;HTU21D;51644;51.068;5.860;2023-07-20T04:13:59;19.23;73.72
65058;HTU21D;51644;51.068;5.860;2023-07-20T04:14:58;19.23;73.71
65058;HTU21D;51644;51.068;5.860;2023-07-20T04:15:56;19.23;73.76
65058;HTU21D;51644;51.068;5.860;2023-07-20T04:16:55;19.24;73.78
65058;HTU21D;51644;51.068;5.860;2023-07-20T04:17:54;19.25;73.71
65058;HTU21D;51644;51.068;5.860;2023-07-20T04:18:57;19.25;73.73
65058;HTU21D;51644;51.068;5.860;2023-07-20T04:19:55;19.25;73.61
65058;HTU21D;51644;51.068;5.860;2023-07-20T04:20:54;19.25;73.64
65058;HTU21D;51644;51.068;5.860;2023-07-20T04:21:53;19.27;73.64
65058;HTU21D;51644;51.068;5.860;2023-07-20T04:22:51;19.27;73.65
65058;HTU21D;51644;51.068;5.860;2023-07-20T04:23:50;19.24;73.69
65058;HTU21D;51644;51.068;5.860;2023-07-20T04:24:49;19.25;73.67
65058;HTU21D;51644;51.068;5.860;2023-07-20T04:25:48;19.23;73.86
65058;HTU21D;51644;51.068;5.860;2023-07-20T04:26:46;19.23;73.86
65058;HTU21D;51644;51.068;5.860;2023-07-20T04:27:45;19.24;73.86
65058;HTU21D;51644;51.068;5.860;2023-07-20T04:28:44;19.24;73.81
65058;HTU21D;51644;51.068;5.860;2023-07-20T04:29:48;19.28;73.80
65058;HTU21D;51644;51.068;5.860;2023-07-20T04:30:49;19.31;73.79
65058;HTU21D;51644;51.068;5.860;2023-07-20T04:31:54;19.36;73.76
65058;HTU21D;51644;51.068;5.860;2023-07-20T04:32:53;19.39;73.68
65058;HTU21D;51644;51.068;5.860;2023-07-20T04:33:52;19.42;73.61
65058;HTU21D;51644;51.068;5.860;2023-07-20T04:34:50;19.46;73.47
65058;HTU21D;51644;51.068;5.860;2023-07-20T04:35:52;19.52;73.35
65058;HTU21D;51644;51.068;5.860;2023-07-20T04:36:55;19.55;73.22
65058;HTU21D;51644;51.068;5.860;2023-07-20T04:37:55;19.56;73.07
65058;HTU21D;51644;51.068;5.860;2023-07-20T04:38:54;19.58;72.90
65058;HTU21D;51644;51.068;5.860;2023-07-20T04:39:54;19.58;72.80
65058;HTU21D;51644;51.068;5.860;2023-07-20T04:40:53;19.59;72.73
65058;HTU21D;51644;51.068;5.860;2023-07-20T04:41:52;19.61;72.69
65058;HTU21D;51644;51.068;5.860;2023-07-20T04:42:50;19.62;72.76
65058;HTU21D;51644;51.068;5.860;2023-07-20T04:43:49;19.61;72.75
65058;HTU21D;51644;51.068;5.860;2023-07-20T04:44:55;19.61;72.70
65058;HTU21D;51644;51.068;5.860;2023-07-20T04:45:54;19.62;72.74
65058;HTU21D;51644;51.068;5.860;2023-07-20T04:46:53;19.63;72.81
65058;HTU21D;51644;51.068;5.860;2023-07-20T04:47:51;19.63;72.81
65058;HTU21D;51644;51.068;5.860;2023-07-20T04:48:51;19.66;72.79
65058;HTU21D;51644;51.068;5.860;2023-07-20T04:49:49;19.70;72.67
65058;HTU21D;51644;51.068;5.860;2023-07-20T04:50:48;19.74;72.58
65058;HTU21D;51644;51.068;5.860;2023-07-20T04:51:47;19.80;72.40
65058;HTU21D;51644;51.068;5.860;2023-07-20T04:52:46;19.84;72.19
65058;HTU21D;51644;51.068;5.860;2023-07-20T04:53:48;19.89;72.04
65058;HTU21D;51644;51.068;5.860;2023-07-20T04:54:47;19.91;71.91
65058;HTU21D;51644;51.068;5.860;2023-07-20T04:55:50;19.92;71.84
65058;HTU21D;51644;51.068;5.860;2023-07-20T04:56:50;19.91;71.90
65058;HTU21D;51644;51.068;5.860;2023-07-20T04:57:50;19.91;71.87
65058;HTU21D;51644;51.068;5.860;2023-07-20T04:58:49;19.91;71.78
65058;HTU21D;51644;51.068;5.860;2023-07-20T04:59:48;19.91;71.72
65058;HTU21D;51644;51.068;5.860;2023-07-20T05:00:48;19.92;71.71
65058;HTU21D;51644;51.068;5.860;2023-07-20T05:01:47;19.92;71.69
65058;HTU21D;51644;51.068;5.860;2023-07-20T05:02:46;19.92;71.71
65058;HTU21D;51644;51.068;5.860;2023-07-20T05:03:46;19.91;71.79
65058;HTU21D;51644;51.068;5.860;2023-07-20T05:04:44;19.91;71.77
65058;HTU21D;51644;51.068;5.860;2023-07-20T05:05:43;19.90;71.83
65058;HTU21D;51644;51.068;5.860;2023-07-20T05:06:43;19.91;71.82
65058;HTU21D;51644;51.068;5.860;2023-07-20T05:07:42;19.91;71.82
65058;HTU21D;51644;51.068;5.860;2023-07-20T05:08:41;19.89;71.87
65058;HTU21D;51644;51.068;5.860;2023-07-20T05:09:39;19.91;71.98
65058;HTU21D;51644;51.068;5.860;2023-07-20T05:10:39;19.92;71.97
65058;HTU21D;51644;51.068;5.860;2023-07-20T05:11:37;19.95;71.95
65058;HTU21D;51644;51.068;5.860;2023-07-20T05:12:36;19.92;71.99
65058;HTU21D;51644;51.068;5.860;2023-07-20T05:13:35;19.94;72.10
65058;HTU21D;51644;51.068;5.860;2023-07-20T05:14:36;19.92;72.20
65058;HTU21D;51644;51.068;5.860;2023-07-20T05:15:35;19.91;72.28
65058;HTU21D;51644;51.068;5.860;2023-07-20T05:16:35;19.91;72.22
65058;HTU21D;51644;51.068;5.860;2023-07-20T05:17:37;19.90;72.25
65058;HTU21D;51644;51.068;5.860;2023-07-20T05:18:36;19.88;72.27
65058;HTU21D;51644;51.068;5.860;2023-07-20T05:19:34;19.88;72.22
65058;HTU21D;51644;51.068;5.860;2023-07-20T05:20:34;19.88;72.26
65058;HTU21D;51644;51.068;5.860;2023-07-20T05:21:33;19.88;72.27
65058;HTU21D;51644;51.068;5.860;2023-07-20T05:22:31;19.90;72.33
65058;HTU21D;51644;51.068;5.860;2023-07-20T05:23:30;19.92;72.39
65058;HTU21D;51644;51.068;5.860;2023-07-20T05:24:29;19.97;72.35
65058;HTU21D;51644;51.068;5.860;2023-07-20T05:25:28;20.02;72.32
65058;HTU21D;51644;51.068;5.860;2023-07-20T05:26:26;20.09;72.32
65058;HTU21D;51644;51.068;5.860;2023-07-20T05:27:25;20.15;72.21
65058;HTU21D;51644;51.068;5.860;2023-07-20T05:28:24;20.21;72.13
65058;HTU21D;51644;51.068;5.860;2023-07-20T05:29:23;20.28;72.11
65058;HTU21D;51644;51.068;5.860;2023-07-20T05:30:21;20.30;71.96
65058;HTU21D;51644;51.068;5.860;2023-07-20T05:31:20;20.34;71.80
65058;HTU21D;51644;51.068;5.860;2023-07-20T05:32:19;20.40;71.57
65058;HTU21D;51644;51.068;5.860;2023-07-20T05:33:18;20.44;71.19
65058;HTU21D;51644;51.068;5.860;2023-07-20T05:34:18;20.47;71.01
65058;HTU21D;51644;51.068;5.860;2023-07-20T05:35:17;20.50;70.87
65058;HTU21D;51644;51.068;5.860;2023-07-20T05:36:16;20.54;70.58
65058;HTU21D;51644;51.068;5.860;2023-07-20T05:37:14;20.57;70.46
65058;HTU21D;51644;51.068;5.860;2023-07-20T05:38:13;20.58;70.24
65058;HTU21D;51644;51.068;5.860;2023-07-20T05:39:12;20.60;70.14
65058;HTU21D;51644;51.068;5.860;2023-07-20T05:40:11;20.61;69.97
65058;HTU21D;51644;51.068;5.860;2023-07-20T05:41:10;20.65;69.73
65058;HTU21D;51644;51.068;5.860;2023-07-20T05:42:09;20.64;69.66
65058;HTU21D;51644;51.068;5.860;2023-07-20T05:43:07;20.64;69.58
65058;HTU21D;51644;51.068;5.860;2023-07-20T05:44:06;20.66;69.45
65058;HTU21D;51644;51.068;5.860;2023-07-20T05:45:05;20.65;69.45
65058;HTU21D;51644;51.068;5.860;2023-07-20T05:46:04;20.66;69.45
65058;HTU21D;51644;51.068;5.860;2023-07-20T05:47:03;20.69;69.40
65058;HTU21D;51644;51.068;5.860;2023-07-20T05:48:02;20.73;69.31
65058;HTU21D;51644;51.068;5.860;2023-07-20T05:49:01;20.81;69.01
65058;HTU21D;51644;51.068;5.860;2023-07-20T05:50:00;20.88;68.71
65058;HTU21D;51644;51.068;5.860;2023-07-20T05:50:59;20.95;68.43
65058;HTU21D;51644;51.068;5.860;2023-07-20T05:51:57;21.01;68.15
65058;HTU21D;51644;51.068;5.860;2023-07-20T05:52:56;21.09;67.98
65058;HTU21D;51644;51.068;5.860;2023-07-20T05:53:55;21.17;67.80
65058;HTU21D;51644;51.068;5.860;2023-07-20T05:54:53;21.27;67.64
65058;HTU21D;51644;51.068;5.860;2023-07-20T05:55:55;21.36;67.31
65058;HTU21D;51644;51.068;5.860;2023-07-20T05:56:55;21.43;67.06
65058;HTU21D;51644;51.068;5.860;2023-07-20T05:57:53;21.50;66.78
65058;HTU21D;51644;51.068;5.860;2023-07-20T05:58:54;21.58;66.47
65058;HTU21D;51644;51.068;5.860;2023-07-20T05:59:55;21.63;66.24
65058;HTU21D;51644;51.068;5.860;2023-07-20T06:00:54;21.66;66.07
65058;HTU21D;51644;51.068;5.860;2023-07-20T06:01:52;21.69;65.86
65058;HTU21D;51644;51.068;5.860;2023-07-20T06:02:51;21.67;65.84
65058;HTU21D;51644;51.068;5.860;2023-07-20T06:03:51;21.64;65.91
65058;HTU21D;51644;51.068;5.860;2023-07-20T06:04:53;21.57;66.14
65058;HTU21D;51644;51.068;5.860;2023-07-20T06:05:58;21.50;66.30
65058;HTU21D;51644;51.068;5.860;2023-07-20T06:06:57;21.46;66.27
65058;HTU21D;51644;51.068;5.860;2023-07-20T06:07:56;21.42;66.30
65058;HTU21D;51644;51.068;5.860;2023-07-20T06:08:55;21.38;66.41
65058;HTU21D;51644;51.068;5.860;2023-07-20T06:09:54;21.33;66.44
65058;HTU21D;51644;51.068;5.860;2023-07-20T06:10:53;21.32;66.63
65058;HTU21D;51644;51.068;5.860;2023-07-20T06:11:51;21.28;66.65
65058;HTU21D;51644;51.068;5.860;2023-07-20T06:12:50;21.23;66.80
65058;HTU21D;51644;51.068;5.860;2023-07-20T06:13:48;21.22;66.91
65058;HTU21D;51644;51.068;5.860;2023-07-20T06:14:48;21.20;66.86
65058;HTU21D;51644;51.068;5.860;2023-07-20T06:15:46;21.20;66.90